Time;durP1;ratioP1;P1;durP2;ratioP2;P2;SDS_P1;SDS_P2;PMS_P1;PMS_P2;Temp;Humidity;BMP_temperature;BMP_pressure;BME280_temperature;BME280_humidity;BME280_pressure;Samples;Min_cycle;Max_cycle;Signal;HPM_P1;HPM_P2
2021/03/16 00:01:06;;;;;;;6.77;2.60;;;3.50;99.90;;;;;;4993196;28;20458;-48
2021/03/16 00:03:33;;;;;;;4.37;2.53;;;3.60;99.90;;;;;;4995531;28;20540;-48
2021/03/16 00:05:59;;;;;;;4.67;3.20;;;3.60;99.90;;;;;;4993325;28;20447;-49
2021/03/16 00:08:26;;;;;;;5.70;3.17;;;3.90;99.90;;;;;;4993390;28;20481;-48
2021/03/16 00:10:53;;;;;;;8.10;3.90;;;3.90;99.90;;;;;;4992812;28;20447;-49
2021/03/16 00:13:20;;;;;;;3.87;3.40;;;3.80;99.90;;;;;;4993178;28;20453;-47
2021/03/16 00:15:47;;;;;;;7.43;4.23;;;3.80;99.90;;;;;;4993238;28;20454;-48
2021/03/16 00:18:15;;;;;;;6.07;4.10;;;3.90;99.90;;;;;;4993158;28;20462;-49
2021/03/16 00:20:42;;;;;;;5.53;3.90;;;3.90;99.90;;;;;;4992416;28;20470;-49
2021/03/16 00:23:08;;;;;;;5.33;4.00;;;3.90;99.90;;;;;;4992960;28;20478;-49
2021/03/16 00:25:35;;;;;;;6.00;4.20;;;3.90;99.90;;;;;;4992164;28;20868;-48
2021/03/16 00:28:02;;;;;;;5.93;4.47;;;3.90;99.90;;;;;;4992730;28;20447;-48
2021/03/16 00:30:28;;;;;;;5.23;3.43;;;4.00;99.90;;;;;;4992702;28;20458;-48
2021/03/16 00:32:56;;;;;;;5.73;4.23;;;4.00;99.90;;;;;;4992967;28;20484;-48
2021/03/16 00:35:23;;;;;;;5.37;3.67;;;4.00;99.90;;;;;;4993053;28;20513;-48
2021/03/16 00:37:49;;;;;;;4.73;3.63;;;3.90;99.90;;;;;;4992490;28;20456;-48
2021/03/16 00:40:16;;;;;;;5.13;3.87;;;3.90;99.90;;;;;;4995389;28;20532;-48
2021/03/16 00:42:43;;;;;;;8.00;4.53;;;3.80;99.90;;;;;;4995054;28;21009;-48
2021/03/16 00:45:11;;;;;;;6.37;3.73;;;3.70;99.90;;;;;;4978468;28;20457;-49
2021/03/16 00:47:38;;;;;;;6.50;4.33;;;3.70;99.90;;;;;;4992788;28;20458;-48
2021/03/16 00:50:08;;;;;;;7.43;4.50;;;3.60;99.90;;;;;;4992167;28;20478;-48
2021/03/16 00:52:35;;;;;;;6.50;4.20;;;3.50;99.90;;;;;;4992719;28;20455;-48
2021/03/16 00:55:01;;;;;;;6.20;4.10;;;3.10;99.90;;;;;;4994773;28;20577;-48
2021/03/16 00:57:28;;;;;;;7.90;4.67;;;3.00;99.90;;;;;;4992312;28;20447;-48
2021/03/16 00:59:54;;;;;;;11.60;4.83;;;3.00;99.90;;;;;;4992246;28;20478;-47
2021/03/16 01:02:21;;;;;;;4.73;3.90;;;3.20;99.90;;;;;;4992680;28;20459;-48
2021/03/16 01:04:47;;;;;;;5.97;4.67;;;3.20;99.90;;;;;;4992464;28;20550;-48
2021/03/16 01:07:16;;;;;;;8.10;5.03;;;3.10;99.90;;;;;;4992102;28;20458;-48
2021/03/16 01:09:42;;;;;;;7.53;5.07;;;3.00;99.90;;;;;;4991439;28;20924;-48
2021/03/16 01:12:09;;;;;;;11.33;5.70;;;3.10;99.90;;;;;;4991944;28;20892;-49
2021/03/16 01:14:36;;;;;;;6.73;4.70;;;3.20;99.90;;;;;;4991782;28;20450;-49
2021/03/16 01:17:02;;;;;;;8.10;5.47;;;3.20;99.90;;;;;;4992448;28;20454;-49
2021/03/16 01:19:29;;;;;;;8.77;4.40;;;3.30;99.90;;;;;;5018178;22;20478;-49
2021/03/16 01:21:55;;;;;;;7.37;4.70;;;3.40;99.90;;;;;;5018728;28;20457;-49
2021/03/16 01:24:23;;;;;;;11.67;5.33;;;3.40;99.90;;;;;;5020758;28;20482;-49
2021/03/16 01:26:49;;;;;;;10.60;5.27;;;3.20;99.90;;;;;;5031140;28;20464;-49
2021/03/16 01:29:17;;;;;;;9.47;5.50;;;3.10;99.90;;;;;;5029236;28;20464;-49
2021/03/16 01:31:43;;;;;;;8.40;5.10;;;3.00;99.90;;;;;;5034262;28;20449;-49
2021/03/16 01:34:10;;;;;;;9.53;5.40;;;2.90;99.90;;;;;;5035186;28;20450;-49
2021/03/16 01:36:37;;;;;;;7.83;4.80;;;2.80;99.90;;;;;;5048080;28;20879;-49
2021/03/16 01:39:04;;;;;;;7.67;5.07;;;3.10;99.90;;;;;;5043183;28;20683;-49
2021/03/16 01:41:32;;;;;;;8.57;5.10;;;3.30;99.90;;;;;;5009715;28;20476;-49
2021/03/16 01:43:58;;;;;;;9.60;5.10;;;3.20;99.90;;;;;;5012602;28;20488;-49
2021/03/16 01:46:25;;;;;;;8.27;5.23;;;3.10;99.90;;;;;;5011752;28;20833;-49
2021/03/16 01:48:51;;;;;;;9.90;4.93;;;3.10;99.90;;;;;;5011828;28;20462;-49
2021/03/16 01:51:19;;;;;;;7.83;4.83;;;3.40;99.90;;;;;;5011441;28;20465;-49
2021/03/16 01:53:45;;;;;;;7.80;5.20;;;3.20;99.90;;;;;;5011998;28;20507;-49
2021/03/16 01:56:14;;;;;;;8.40;5.57;;;3.30;99.90;;;;;;5011504;28;20450;-50
2021/03/16 01:58:44;;;;;;;8.37;5.00;;;3.20;99.90;;;;;;5011721;28;20452;-49
2021/03/16 02:01:12;;;;;;;6.40;4.43;;;3.20;99.90;;;;;;5022525;28;20559;-49
2021/03/16 02:03:38;;;;;;;9.87;4.50;;;3.30;99.90;;;;;;5020470;28;20487;-49
2021/03/16 02:06:10;;;;;;;9.30;4.17;;;3.20;99.90;;;;;;5021150;28;20972;-49
2021/03/16 02:08:47;;;;;;;8.47;4.50;;;3.40;99.90;;;;;;5011353;28;20466;-49
2021/03/16 02:11:22;;;;;;;6.60;4.53;;;3.40;99.90;;;;;;5019224;28;20508;-49
2021/03/16 02:13:54;;;;;;;8.20;5.50;;;3.60;99.90;;;;;;5011573;28;20445;-49
2021/03/16 02:16:28;;;;;;;8.97;5.40;;;3.70;99.90;;;;;;5011073;28;20449;-49
2021/03/16 02:18:58;;;;;;;9.10;5.80;;;3.60;99.90;;;;;;5011488;28;20450;-48
2021/03/16 02:21:28;;;;;;;7.83;4.93;;;3.60;99.90;;;;;;5011382;28;20584;-49
2021/03/16 02:24:17;;;;;;;8.47;5.33;;;3.40;99.90;;;;;;5012754;28;20482;-49
2021/03/16 02:26:54;;;;;;;9.00;5.80;;;3.10;99.90;;;;;;5019337;28;20968;-49
2021/03/16 02:29:25;;;;;;;7.43;5.20;;;3.10;99.90;;;;;;5014491;28;20449;-49
2021/03/16 02:31:56;;;;;;;9.43;5.63;;;3.10;99.90;;;;;;5020778;28;20457;-49
2021/03/16 02:34:23;;;;;;;8.57;5.50;;;2.70;99.90;;;;;;5014674;28;20453;-49
2021/03/16 02:36:51;;;;;;;7.47;5.23;;;2.80;99.90;;;;;;5011807;28;20453;-49
2021/03/16 02:39:19;;;;;;;9.50;5.80;;;2.70;99.90;;;;;;5012287;28;20606;-49
2021/03/16 02:41:49;;;;;;;10.13;6.10;;;2.90;99.90;;;;;;5010837;28;20460;-49
2021/03/16 02:44:16;;;;;;;6.43;4.67;;;3.10;99.90;;;;;;5010135;28;20496;-49
2021/03/16 02:46:45;;;;;;;9.83;5.37;;;3.00;99.90;;;;;;5026601;28;20984;-49
2021/03/16 02:49:16;;;;;;;8.00;5.30;;;3.00;99.90;;;;;;5026889;28;20456;-49
2021/03/16 02:51:43;;;;;;;8.17;5.33;;;3.40;99.90;;;;;;5011784;28;20458;-49
2021/03/16 02:54:12;;;;;;;8.60;5.00;;;3.40;99.90;;;;;;5004300;28;20463;-49
2021/03/16 02:56:40;;;;;;;8.23;6.00;;;3.20;99.90;;;;;;5013218;28;20954;-50
2021/03/16 02:59:09;;;;;;;12.20;4.97;;;3.20;99.90;;;;;;5014401;28;20464;-49
2021/03/16 03:01:36;;;;;;;9.20;5.30;;;3.10;99.90;;;;;;5015982;28;21102;-49
2021/03/16 03:04:09;;;;;;;11.20;5.30;;;3.10;99.90;;;;;;5018311;28;20484;-49
2021/03/16 03:06:39;;;;;;;8.63;4.73;;;3.10;99.90;;;;;;5010656;28;20460;-49
2021/03/16 03:09:06;;;;;;;8.40;5.07;;;3.30;99.90;;;;;;5015903;28;20457;-49
2021/03/16 03:11:34;;;;;;;7.50;4.50;;;3.40;99.90;;;;;;5010951;28;20460;-49
2021/03/16 03:14:02;;;;;;;7.50;4.70;;;3.40;99.90;;;;;;5010794;28;20504;-49
2021/03/16 03:16:29;;;;;;;10.80;4.97;;;3.40;99.90;;;;;;5010291;28;20450;-49
2021/03/16 03:18:56;;;;;;;8.83;5.10;;;3.50;99.90;;;;;;5010676;28;20448;-49
2021/03/16 03:21:31;;;;;;;7.37;4.90;;;3.50;99.90;;;;;;5028461;28;20480;-49
2021/03/16 03:27:56;;;;;;;5.97;4.50;;;3.50;99.90;;;;;;4992198;28;20550;-49
2021/03/16 03:30:25;;;;;;;7.20;4.40;;;3.50;99.90;;;;;;5008269;28;20473;-49
2021/03/16 03:32:54;;;;;;;8.23;4.43;;;3.60;99.90;;;;;;5011169;28;20844;-49
2021/03/16 03:35:21;;;;;;;12.33;4.57;;;3.50;99.90;;;;;;5010515;28;20457;-50
2021/03/16 03:37:49;;;;;;;8.17;4.47;;;3.60;99.90;;;;;;5010573;28;20457;-49
2021/03/16 03:40:16;;;;;;;6.73;4.30;;;3.60;99.90;;;;;;5029942;28;21240;-49
2021/03/16 03:42:44;;;;;;;7.87;5.10;;;3.50;99.90;;;;;;5033184;28;20456;-49
2021/03/16 03:45:12;;;;;;;6.27;4.13;;;3.70;99.90;;;;;;5032765;28;20479;-49
2021/03/16 03:47:41;;;;;;;6.50;4.40;;;3.70;99.90;;;;;;5033159;28;20451;-49
2021/03/16 03:50:09;;;;;;;7.30;4.73;;;3.60;99.90;;;;;;5015337;28;20523;-49
2021/03/16 03:52:36;;;;;;;8.90;4.80;;;3.60;99.90;;;;;;5013733;28;20449;-49
2021/03/16 03:55:06;;;;;;;6.37;4.33;;;3.60;99.90;;;;;;5013260;28;21005;-49
2021/03/16 03:57:33;;;;;;;9.00;4.77;;;3.60;99.90;;;;;;5013673;28;20457;-49
2021/03/16 04:00:01;;;;;;;6.30;4.23;;;3.60;99.90;;;;;;5012752;28;20479;-49
2021/03/16 04:02:28;;;;;;;5.40;4.00;;;3.60;99.90;;;;;;5013602;28;20449;-49
2021/03/16 04:04:57;;;;;;;6.07;4.03;;;3.60;99.90;;;;;;5013159;28;20480;-49
2021/03/16 04:07:24;;;;;;;5.60;4.20;;;3.60;99.90;;;;;;5013011;28;20458;-50
2021/03/16 04:09:50;;;;;;;9.53;4.90;;;3.70;99.90;;;;;;5012521;28;20853;-50
2021/03/16 04:12:18;;;;;;;6.50;3.90;;;3.60;99.90;;;;;;5011755;28;20461;-49
2021/03/16 04:14:45;;;;;;;6.20;3.93;;;3.60;99.90;;;;;;5013167;28;20456;-49
2021/03/16 04:17:11;;;;;;;6.43;3.93;;;3.50;99.90;;;;;;5019966;28;20455;-50
2021/03/16 04:19:38;;;;;;;8.50;4.50;;;3.60;99.90;;;;;;5013152;28;20480;-49
2021/03/16 04:22:05;;;;;;;7.23;4.40;;;3.50;99.90;;;;;;5013492;28;20453;-49
2021/03/16 04:44:44;;;;;;;5.63;3.43;;;3.60;99.90;;;;;;5003512;28;20468;-49
2021/03/16 04:47:10;;;;;;;6.73;3.83;;;3.60;99.90;;;;;;5012826;28;20453;-49
2021/03/16 04:49:37;;;;;;;6.17;3.60;;;3.40;99.90;;;;;;5012238;28;20891;-49
2021/03/16 04:52:04;;;;;;;8.67;3.40;;;3.10;99.90;;;;;;5002117;28;20835;-49
2021/03/16 04:54:30;;;;;;;7.30;3.90;;;3.00;99.90;;;;;;5012278;28;20504;-49
2021/03/16 04:56:57;;;;;;;5.97;3.80;;;3.00;99.90;;;;;;5013163;28;21022;-49
2021/03/16 04:59:23;;;;;;;8.97;3.23;;;2.90;99.90;;;;;;5012868;28;21021;-49
2021/03/16 05:01:51;;;;;;;8.90;4.57;;;2.80;99.90;;;;;;5011625;28;20457;-50
2021/03/16 05:04:17;;;;;;;6.40;3.80;;;2.70;99.90;;;;;;5011192;28;20480;-49
2021/03/16 05:06:44;;;;;;;9.60;4.10;;;2.60;99.90;;;;;;5012165;28;20461;-49
2021/03/16 05:09:13;;;;;;;10.47;4.03;;;2.70;99.90;;;;;;5012602;28;20453;-49
2021/03/16 05:11:39;;;;;;;7.37;4.67;;;2.60;99.90;;;;;;5011975;28;20455;-49
2021/03/16 05:14:06;;;;;;;7.60;4.07;;;2.60;99.90;;;;;;5011556;28;20445;-49
2021/03/16 05:16:32;;;;;;;9.53;4.23;;;2.70;99.90;;;;;;5011760;28;20460;-49
2021/03/16 05:19:01;;;;;;;8.00;3.87;;;2.70;99.90;;;;;;5007405;28;20456;-49
2021/03/16 05:21:28;;;;;;;6.17;3.53;;;2.70;99.90;;;;;;5012565;28;20488;-49
2021/03/16 05:23:54;;;;;;;7.53;4.00;;;2.70;99.90;;;;;;5009519;28;20557;-49
2021/03/16 05:26:21;;;;;;;4.93;3.30;;;2.70;99.90;;;;;;5009700;28;20457;-49
2021/03/16 05:28:48;;;;;;;5.47;3.50;;;2.60;99.90;;;;;;5012759;28;20454;-49
2021/03/16 05:31:14;;;;;;;7.63;3.30;;;2.70;99.90;;;;;;5011698;28;20473;-49
2021/03/16 05:33:41;;;;;;;4.10;3.00;;;2.70;99.90;;;;;;5011567;28;20449;-50
2021/03/16 05:36:08;;;;;;;3.63;2.90;;;2.70;99.90;;;;;;5012332;28;20837;-50
2021/03/16 05:38:35;;;;;;;6.23;3.60;;;2.70;99.90;;;;;;5012358;28;20457;-49
2021/03/16 05:41:02;;;;;;;4.17;3.00;;;2.80;99.90;;;;;;5010329;28;20472;-49
2021/03/16 05:43:29;;;;;;;4.10;2.80;;;2.90;99.90;;;;;;5010937;28;21041;-49
2021/03/16 05:45:56;;;;;;;5.57;3.17;;;3.00;99.90;;;;;;5010541;28;20511;-49
2021/03/16 05:48:24;;;;;;;5.03;3.37;;;3.00;99.90;;;;;;5011629;28;20453;-49
2021/03/16 05:50:52;;;;;;;6.17;3.77;;;3.00;99.90;;;;;;5011095;28;20484;-49
2021/03/16 05:53:20;;;;;;;5.87;3.40;;;3.10;99.90;;;;;;5011861;28;21037;-50
2021/03/16 05:55:47;;;;;;;4.93;3.17;;;3.00;99.90;;;;;;5010973;28;20959;-49
2021/03/16 05:58:14;;;;;;;5.00;3.20;;;3.00;99.90;;;;;;5011817;28;20449;-49
2021/03/16 06:00:40;;;;;;;9.43;3.90;;;3.10;99.90;;;;;;5010885;28;20473;-49
2021/03/16 06:03:07;;;;;;;4.77;3.37;;;3.30;99.90;;;;;;5011233;28;20448;-49
2021/03/16 06:05:34;;;;;;;5.80;3.03;;;3.20;99.90;;;;;;4997703;28;20482;-49
2021/03/16 06:08:01;;;;;;;11.00;3.17;;;3.10;99.90;;;;;;5000900;28;20962;-49
2021/03/16 06:10:28;;;;;;;5.27;2.70;;;3.20;99.90;;;;;;5010516;28;20473;-49
2021/03/16 06:12:55;;;;;;;7.30;3.63;;;3.10;99.90;;;;;;5010254;28;20455;-49
2021/03/16 06:15:23;;;;;;;5.03;3.13;;;3.20;99.90;;;;;;4999155;28;20538;-49
2021/03/16 06:17:52;;;;;;;5.10;3.43;;;3.20;99.90;;;;;;4999515;28;20453;-49
2021/03/16 06:20:29;;;;;;;5.37;3.00;;;3.20;99.90;;;;;;5012299;28;20862;-49
2021/03/16 06:23:08;;;;;;;7.97;2.97;;;3.20;99.90;;;;;;5011197;28;20453;-49
2021/03/16 06:25:37;;;;;;;9.37;3.20;;;3.20;99.90;;;;;;5007612;28;20487;-49
2021/03/16 06:28:05;;;;;;;6.53;3.37;;;3.20;99.90;;;;;;5011815;28;20540;-49
2021/03/16 06:30:32;;;;;;;4.07;3.20;;;3.30;99.90;;;;;;5009074;28;20482;-49
2021/03/16 06:33:01;;;;;;;4.97;3.63;;;3.30;99.90;;;;;;5007979;28;20452;-49
2021/03/16 06:35:28;;;;;;;8.40;3.40;;;3.40;99.90;;;;;;5005546;28;20456;-49
2021/03/16 06:38:06;;;;;;;7.53;3.47;;;3.40;99.90;;;;;;5016043;28;20452;-49
2021/03/16 06:40:35;;;;;;;7.33;3.50;;;3.40;99.90;;;;;;5010270;28;20517;-49
2021/03/16 06:43:04;;;;;;;6.27;2.93;;;3.50;99.90;;;;;;5020802;28;20482;-49
2021/03/16 06:45:32;;;;;;;3.97;2.90;;;3.50;99.90;;;;;;5020691;28;20485;-49
2021/03/16 06:47:59;;;;;;;5.33;3.07;;;3.50;99.90;;;;;;5010591;28;20450;-49
2021/03/16 06:50:29;;;;;;;5.73;3.53;;;3.60;99.90;;;;;;5011269;28;20475;-49
2021/03/16 06:52:57;;;;;;;4.00;2.60;;;3.50;99.90;;;;;;5011129;28;20596;-49
2021/03/16 06:55:24;;;;;;;6.00;3.10;;;3.50;99.90;;;;;;5009477;28;21236;-49
2021/03/16 06:57:52;;;;;;;6.60;2.70;;;3.60;99.90;;;;;;5010950;28;20462;-49
2021/03/16 07:00:19;;;;;;;5.40;3.03;;;3.70;99.90;;;;;;5010519;28;20544;-49
2021/03/16 07:02:46;;;;;;;6.23;2.70;;;3.70;99.90;;;;;;5013133;28;20453;-49
2021/03/16 07:05:13;;;;;;;4.70;2.70;;;3.70;99.90;;;;;;5010412;28;20485;-49
2021/03/16 07:07:41;;;;;;;8.20;3.27;;;3.70;99.90;;;;;;5011149;28;20450;-49
2021/03/16 07:10:09;;;;;;;13.37;3.77;;;4.10;99.90;;;;;;5010993;28;20473;-49
2021/03/16 07:12:36;;;;;;;8.03;3.70;;;3.90;99.90;;;;;;5010743;28;20445;-49
2021/03/16 07:15:05;;;;;;;4.50;3.20;;;3.80;99.90;;;;;;5006279;28;20454;-49
2021/03/16 07:17:33;;;;;;;5.33;3.20;;;3.90;99.90;;;;;;4994951;28;20454;-48
2021/03/16 07:20:04;;;;;;;5.57;3.00;;;4.00;99.90;;;;;;5042045;22;20966;-48
2021/03/16 07:22:36;;;;;;;5.27;2.70;;;4.00;99.90;;;;;;5034071;28;20452;-48
2021/03/16 07:25:06;;;;;;;4.97;2.80;;;3.90;99.90;;;;;;5043645;28;20559;-48
2021/03/16 07:27:34;;;;;;;6.90;3.57;;;4.10;99.90;;;;;;5052213;28;20501;-48
2021/03/16 07:30:01;;;;;;;5.17;3.07;;;4.10;99.90;;;;;;5052471;28;20474;-47
2021/03/16 07:32:28;;;;;;;5.60;3.17;;;4.10;99.90;;;;;;5053392;28;21015;-48
2021/03/16 07:35:00;;;;;;;9.40;3.60;;;4.40;99.90;;;;;;5053524;28;20512;-47
2021/03/16 07:37:28;;;;;;;7.50;3.30;;;4.30;99.90;;;;;;5053812;28;20459;-48
2021/03/16 07:39:55;;;;;;;6.63;2.87;;;4.40;99.90;;;;;;5053591;28;20512;-48
2021/03/16 07:42:22;;;;;;;5.50;3.60;;;4.50;99.90;;;;;;5053225;28;20443;-48
2021/03/16 07:44:49;;;;;;;5.23;3.57;;;4.50;99.90;;;;;;5052913;28;20478;-48
2021/03/16 07:47:15;;;;;;;13.50;4.50;;;4.40;99.90;;;;;;5053108;28;20463;-47
2021/03/16 07:49:42;;;;;;;15.50;3.77;;;4.60;99.90;;;;;;5053653;28;20476;-48
2021/03/16 07:52:17;;;;;;;7.00;3.40;;;4.40;99.90;;;;;;5053433;28;20447;-47
2021/03/16 07:54:48;;;;;;;8.30;2.97;;;4.20;99.90;;;;;;5050182;28;20463;-48
2021/03/16 07:57:26;;;;;;;4.37;3.30;;;4.20;99.90;;;;;;5051922;28;20447;-48
2021/03/16 07:59:59;;;;;;;7.47;3.43;;;4.20;99.90;;;;;;5052211;28;20447;-48
2021/03/16 08:02:29;;;;;;;4.33;2.90;;;4.30;99.90;;;;;;5052353;28;20549;-48
2021/03/16 08:04:56;;;;;;;4.47;3.40;;;4.40;99.90;;;;;;5052634;28;20482;-47
2021/03/16 08:07:25;;;;;;;6.70;2.77;;;4.50;99.90;;;;;;5053253;28;20831;-48
2021/03/16 08:09:55;;;;;;;3.73;3.30;;;4.60;99.90;;;;;;5052946;28;20524;-47
2021/03/16 08:12:25;;;;;;;5.47;2.87;;;4.70;99.90;;;;;;5052709;28;20455;-48
2021/03/16 08:14:52;;;;;;;6.60;2.80;;;4.60;99.90;;;;;;5051154;28;20444;-46
2021/03/16 08:17:28;;;;;;;5.47;2.50;;;4.70;99.90;;;;;;5058933;28;20920;-47
2021/03/16 08:19:56;;;;;;;8.77;3.07;;;4.70;99.90;;;;;;5052320;28;20475;-47
2021/03/16 08:22:24;;;;;;;5.77;2.83;;;4.70;99.90;;;;;;5052462;28;20526;-47
2021/03/16 08:24:53;;;;;;;10.20;3.93;;;5.00;99.90;;;;;;5052197;28;20483;-47
2021/03/16 08:27:20;;;;;;;4.87;3.03;;;4.90;99.90;;;;;;5052794;28;20483;-47
2021/03/16 08:29:48;;;;;;;5.67;3.17;;;4.80;99.90;;;;;;5052614;28;20669;-47
2021/03/16 08:32:16;;;;;;;3.10;2.30;;;4.80;99.90;;;;;;5058393;28;21006;-47
2021/03/16 08:34:44;;;;;;;3.27;2.27;;;4.70;99.90;;;;;;5054124;28;20525;-47
2021/03/16 08:37:21;;;;;;;3.43;2.70;;;4.50;99.90;;;;;;5050919;28;20971;-47
2021/03/16 08:39:48;;;;;;;7.33;2.70;;;4.50;99.90;;;;;;5052163;28;20444;-47
2021/03/16 08:42:18;;;;;;;4.37;2.47;;;4.70;99.90;;;;;;5051673;28;20456;-48
2021/03/16 08:44:44;;;;;;;3.40;2.63;;;4.50;99.90;;;;;;5051529;28;21055;-48
2021/03/16 08:47:12;;;;;;;2.40;1.90;;;4.50;99.90;;;;;;5051998;28;20883;-48
2021/03/16 08:49:40;;;;;;;4.23;2.23;;;4.50;99.90;;;;;;5052216;28;20529;-48
2021/03/16 08:52:20;;;;;;;3.63;2.40;;;4.30;99.90;;;;;;5051255;28;20452;-47
2021/03/16 08:54:47;;;;;;;4.50;2.77;;;4.40;99.90;;;;;;5051423;28;20452;-47
2021/03/16 08:57:17;;;;;;;4.70;2.40;;;4.10;99.90;;;;;;5051731;28;20452;-48
2021/03/16 08:59:48;;;;;;;3.03;2.30;;;4.20;99.90;;;;;;5051197;28;21130;-47
2021/03/16 09:02:19;;;;;;;3.77;2.80;;;4.50;99.90;;;;;;5051902;28;20456;-47
2021/03/16 09:04:46;;;;;;;5.83;2.90;;;4.60;99.90;;;;;;5051295;28;20511;-47
2021/03/16 09:07:21;;;;;;;4.30;3.13;;;4.60;99.90;;;;;;5051754;28;20983;-47
2021/03/16 09:09:47;;;;;;;5.07;2.90;;;4.70;99.90;;;;;;5051672;28;20951;-48
2021/03/16 09:12:26;;;;;;;3.83;2.80;;;4.70;99.90;;;;;;5051575;28;20451;-47
2021/03/16 09:14:52;;;;;;;5.50;3.03;;;4.80;99.90;;;;;;5049305;28;20527;-47
2021/03/16 09:17:19;;;;;;;4.23;2.67;;;4.70;99.90;;;;;;5054543;28;20448;-47
2021/03/16 09:19:45;;;;;;;2.77;2.20;;;4.70;99.90;;;;;;5051144;28;20448;-47
2021/03/16 09:22:14;;;;;;;3.30;2.40;;;4.80;99.90;;;;;;5051381;28;20868;-48
2021/03/16 09:24:44;;;;;;;7.77;3.50;;;4.90;99.90;;;;;;5050958;28;20484;-47
2021/03/16 09:27:11;;;;;;;5.53;2.90;;;4.90;99.90;;;;;;5050958;28;20466;-48
2021/03/16 09:29:38;;;;;;;5.70;2.90;;;5.00;99.90;;;;;;5051278;28;20517;-48
2021/03/16 09:32:07;;;;;;;7.33;3.10;;;4.70;99.90;;;;;;5040402;28;20459;-48
2021/03/16 09:34:36;;;;;;;8.53;3.60;;;4.80;99.90;;;;;;5045019;28;20444;-48
2021/03/16 09:37:05;;;;;;;6.40;3.73;;;4.70;99.90;;;;;;5050082;28;20497;-47
2021/03/16 09:39:32;;;;;;;3.77;2.90;;;4.80;99.90;;;;;;5050841;28;20458;-48
2021/03/16 09:42:01;;;;;;;5.97;2.80;;;4.90;99.90;;;;;;5051068;28;20467;-48
2021/03/16 09:44:38;;;;;;;5.13;2.20;;;4.90;99.90;;;;;;5050634;28;21012;-48
2021/03/16 09:47:07;;;;;;;6.23;2.67;;;5.00;99.90;;;;;;5050766;28;20457;-47
2021/03/16 09:49:35;;;;;;;4.53;2.60;;;5.10;99.90;;;;;;5050832;28;20454;-48
2021/03/16 09:52:04;;;;;;;5.13;2.57;;;5.10;99.90;;;;;;5050767;28;20940;-48
2021/03/16 09:54:39;;;;;;;5.03;2.43;;;5.10;99.90;;;;;;5050583;28;20531;-48
2021/03/16 09:57:08;;;;;;;6.50;2.47;;;5.20;99.90;;;;;;5050854;28;20450;-48
2021/03/16 09:59:37;;;;;;;2.90;2.27;;;5.30;99.90;;;;;;5050624;28;20452;-48
2021/03/16 10:02:04;;;;;;;7.47;2.97;;;5.40;99.90;;;;;;5050363;28;20444;-48
2021/03/16 10:04:42;;;;;;;4.13;2.40;;;5.30;99.90;;;;;;5049789;28;20475;-48
2021/03/16 10:07:09;;;;;;;5.07;2.00;;;5.30;99.90;;;;;;5050547;28;20444;-48
2021/03/16 10:09:40;;;;;;;5.53;2.13;;;5.30;99.90;;;;;;5049064;28;20453;-48
2021/03/16 10:12:17;;;;;;;6.13;2.10;;;5.30;99.90;;;;;;5030509;28;20459;-48
2021/03/16 10:14:44;;;;;;;3.47;2.93;;;5.60;99.90;;;;;;5041379;28;20465;-48
2021/03/16 10:17:11;;;;;;;4.63;2.50;;;5.80;99.90;;;;;;5050042;28;20982;-48
2021/03/16 10:19:39;;;;;;;2.10;1.90;;;5.70;99.90;;;;;;5050075;28;20452;-48
2021/03/16 10:22:12;;;;;;;2.30;2.07;;;5.30;99.90;;;;;;5050793;28;20454;-48
2021/03/16 10:24:39;;;;;;;2.57;2.37;;;5.30;99.90;;;;;;5049869;28;20996;-48
2021/03/16 10:27:05;;;;;;;5.63;2.17;;;5.40;99.90;;;;;;5056423;28;20448;-47
2021/03/16 10:29:37;;;;;;;3.07;2.20;;;5.30;99.90;;;;;;5050139;28;20440;-47
2021/03/16 10:32:04;;;;;;;3.53;1.90;;;5.40;99.90;;;;;;5049989;28;20530;-48
2021/03/16 10:34:30;;;;;;;3.20;2.30;;;5.50;99.90;;;;;;5050213;28;20447;-48
2021/03/16 10:36:57;;;;;;;5.33;2.63;;;5.50;99.90;;;;;;5050191;28;20452;-47
2021/03/16 10:39:23;;;;;;;4.30;2.57;;;5.70;99.90;;;;;;5050193;28;20463;-47
2021/03/16 10:41:50;;;;;;;3.47;2.30;;;5.50;99.90;;;;;;5049791;28;20475;-47
2021/03/16 10:44:16;;;;;;;8.60;2.60;;;5.50;99.90;;;;;;5049128;28;20846;-48
2021/03/16 10:46:43;;;;;;;4.83;2.83;;;5.60;99.90;;;;;;5050530;28;20455;-48
2021/03/16 10:49:10;;;;;;;2.30;2.10;;;5.50;99.90;;;;;;5056920;28;20458;-48
2021/03/16 10:51:36;;;;;;;6.00;2.70;;;5.70;99.90;;;;;;5052851;28;20471;-48
2021/03/16 10:54:03;;;;;;;8.13;3.17;;;5.90;99.90;;;;;;5036646;28;20818;-48
2021/03/16 10:56:30;;;;;;;3.73;2.40;;;6.20;99.90;;;;;;5036306;28;20456;-48
2021/03/16 10:58:56;;;;;;;4.70;2.73;;;6.20;99.90;;;;;;5036820;28;20452;-48
2021/03/16 11:01:22;;;;;;;4.80;3.00;;;6.20;99.90;;;;;;5043333;28;20486;-48
2021/03/16 11:03:50;;;;;;;4.93;2.30;;;6.40;99.90;;;;;;5056354;28;20968;-48
2021/03/16 11:06:16;;;;;;;5.00;2.90;;;6.50;99.90;;;;;;5056279;28;20447;-48
2021/03/16 11:08:43;;;;;;;7.10;3.40;;;6.30;99.90;;;;;;5056395;28;20937;-48
2021/03/16 11:11:10;;;;;;;10.47;3.40;;;6.40;99.90;;;;;;5056331;28;20518;-48
2021/03/16 11:13:36;;;;;;;3.47;2.50;;;6.60;99.90;;;;;;5056205;28;20451;-49
2021/03/16 11:16:03;;;;;;;2.97;2.30;;;6.50;99.90;;;;;;5056448;28;20449;-48
2021/03/16 11:18:29;;;;;;;6.87;2.87;;;6.60;99.90;;;;;;5055866;28;20452;-48
2021/03/16 11:20:57;;;;;;;7.53;3.10;;;6.70;99.90;;;;;;5055683;28;21005;-48
2021/03/16 11:23:23;;;;;;;4.20;2.50;;;6.80;99.90;;;;;;5056018;28;20444;-48
2021/03/16 11:25:50;;;;;;;3.73;2.40;;;6.90;99.90;;;;;;5055881;28;20483;-48
2021/03/16 11:28:16;;;;;;;3.73;2.67;;;7.10;99.90;;;;;;5056437;28;20456;-48
2021/03/16 11:30:43;;;;;;;7.43;3.00;;;7.20;99.90;;;;;;5056340;28;20474;-47
2021/03/16 11:33:10;;;;;;;3.57;2.57;;;7.30;99.90;;;;;;5056580;28;20929;-48
2021/03/16 11:35:36;;;;;;;4.77;2.47;;;7.20;99.90;;;;;;5056385;28;20448;-48
2021/03/16 11:38:04;;;;;;;6.73;2.27;;;7.00;99.90;;;;;;5055968;28;20473;-48
2021/03/16 11:40:30;;;;;;;4.77;2.33;;;6.90;99.90;;;;;;5055984;28;20471;-48
2021/03/16 11:42:57;;;;;;;4.87;2.53;;;6.80;99.90;;;;;;5056554;28;20509;-47
2021/03/16 11:45:24;;;;;;;3.57;2.23;;;6.80;99.90;;;;;;5056043;28;20505;-47
2021/03/16 11:47:50;;;;;;;3.60;2.20;;;6.70;99.90;;;;;;5056050;28;20509;-48
2021/03/16 11:50:17;;;;;;;4.30;2.60;;;6.60;99.90;;;;;;5056159;28;20897;-47
2021/03/16 11:52:43;;;;;;;3.63;2.20;;;6.50;99.90;;;;;;5056002;28;20504;-47
2021/03/16 11:55:12;;;;;;;5.40;2.10;;;6.50;99.90;;;;;;5055833;28;20968;-47
2021/03/16 11:57:39;;;;;;;3.40;1.87;;;6.70;99.90;;;;;;5055878;28;20834;-48
2021/03/16 12:00:07;;;;;;;3.60;2.30;;;6.90;99.90;;;;;;5052691;28;20517;-48
2021/03/16 12:02:33;;;;;;;3.33;2.50;;;7.00;99.90;;;;;;5052784;28;20808;-48
2021/03/16 12:05:00;;;;;;;3.73;2.43;;;7.10;99.90;;;;;;5052515;28;21024;-47
2021/03/16 12:07:27;;;;;;;7.10;2.00;;;7.00;99.90;;;;;;5052571;28;20451;-47
2021/03/16 12:09:53;;;;;;;4.03;2.40;;;7.20;99.90;;;;;;5052937;28;20861;-47
2021/03/16 12:12:21;;;;;;;4.50;2.20;;;7.30;99.90;;;;;;5052695;28;20451;-47
2021/03/16 12:14:47;;;;;;;3.33;2.50;;;7.30;99.90;;;;;;5052449;28;21111;-47
2021/03/16 12:17:14;;;;;;;6.13;2.50;;;7.10;99.90;;;;;;5052434;28;20454;-47
2021/03/16 12:19:41;;;;;;;3.97;2.17;;;7.00;99.90;;;;;;5052322;28;20454;-47
2021/03/16 12:22:08;;;;;;;5.33;2.27;;;7.10;99.90;;;;;;5052757;28;20457;-48
2021/03/16 12:24:35;;;;;;;2.90;2.20;;;6.70;99.90;;;;;;5052416;28;20574;-47
2021/03/16 12:27:01;;;;;;;3.80;2.30;;;6.60;99.90;;;;;;5052254;28;20513;-48
2021/03/16 12:29:29;;;;;;;11.00;2.60;;;6.60;99.90;;;;;;5052429;28;20459;-47
2021/03/16 12:31:56;;;;;;;4.40;2.60;;;6.80;99.90;;;;;;5052269;28;20505;-48
2021/03/16 12:34:22;;;;;;;3.07;1.83;;;6.90;99.90;;;;;;5051905;28;20466;-47
2021/03/16 12:36:50;;;;;;;5.07;2.20;;;6.90;99.90;;;;;;5052169;28;20451;-48
2021/03/16 12:39:17;;;;;;;3.30;2.17;;;6.90;99.90;;;;;;5051970;28;20876;-47
2021/03/16 12:41:44;;;;;;;4.73;2.40;;;6.70;99.90;;;;;;5052204;28;20474;-48
2021/03/16 12:44:13;;;;;;;3.90;2.33;;;6.80;99.90;;;;;;5051995;28;20458;-48
2021/03/16 12:46:40;;;;;;;2.63;2.10;;;6.60;99.90;;;;;;5051890;28;20458;-47
2021/03/16 12:49:07;;;;;;;2.83;2.13;;;6.50;99.90;;;;;;5052044;28;20466;-48
2021/03/16 12:51:33;;;;;;;3.80;2.47;;;6.50;99.90;;;;;;5051696;28;20498;-47
2021/03/16 12:54:01;;;;;;;2.67;2.47;;;6.20;99.90;;;;;;5047987;28;20456;-48
2021/03/16 12:56:27;;;;;;;5.10;2.40;;;6.00;99.90;;;;;;5051504;28;20452;-48
2021/03/16 12:58:54;;;;;;;5.13;2.50;;;5.60;99.90;;;;;;5051879;28;20498;-48
2021/03/16 13:01:21;;;;;;;2.47;2.27;;;5.50;99.90;;;;;;5051394;28;20471;-48
2021/03/16 13:03:48;;;;;;;2.50;1.87;;;5.40;99.90;;;;;;5052028;28;20551;-47
2021/03/16 13:06:15;;;;;;;4.03;2.13;;;4.90;99.90;;;;;;5050838;28;20483;-47
2021/03/16 13:08:41;;;;;;;4.07;2.30;;;4.70;99.90;;;;;;5051710;28;20462;-48
2021/03/16 13:11:07;;;;;;;3.20;2.40;;;4.80;99.90;;;;;;5050332;28;20468;-47
2021/03/16 13:13:34;;;;;;;4.10;2.20;;;5.00;99.90;;;;;;5050692;28;20448;-48
2021/03/16 13:16:00;;;;;;;3.80;2.57;;;5.30;99.90;;;;;;5051189;28;20453;-48
2021/03/16 13:18:27;;;;;;;3.03;2.43;;;5.60;99.90;;;;;;5051431;28;20501;-48
2021/03/16 13:20:54;;;;;;;3.70;2.77;;;5.90;99.90;;;;;;5073559;22;20496;-51
2021/03/16 13:23:21;;;;;;;4.80;2.20;;;6.10;99.90;;;;;;5037351;28;20468;-51